AKST,Max TemperatureF,Mean TemperatureF,Min TemperatureF,Max Dew PointF,MeanDew PointF,Min DewpointF,Max Humidity, Mean Humidity, Min Humidity, Max Sea Level PressureIn, Mean Sea Level PressureIn, Min Sea Level PressureIn, Max VisibilityMiles, Mean VisibilityMiles, Min VisibilityMiles, Max Wind SpeedMPH, Mean Wind SpeedMPH, Max Gust SpeedMPH,PrecipitationIn, CloudCover, Events, WindDirDegrees
2010-11-1,48,46,44,43,36,32,87,64,54,29.09,28.96,28.90,10,10,7,26,16,37,0.00,7,,123
2010-11-2,46,44,42,43,40,39,93,84,81,30.21,29.84,29.39,10,9,5,21,13,28,0.00,8,,133
2010-11-3,53,46,39,43,39,37,93,87,67,30.25,29.84,29.43,10,10,5,21,7,30,0.00,8,,333
2010-11-4,48,44,41,43,40,37,93,84,76,29.44,29.35,29.22,10,10,8,16,8,22,0.00,8,,134
2010-11-5,46,42,37,36,34,30,87,75,53,29.59,29.56,29.50,10,10,9,20,11,26,0.00,8,,137
2010-11-6,46,42,39,39,35,30,93,76,53,29.47,29.36,29.32,10,10,10,10,7,20,0.00,8,,359
2010-11-7,42,38,35,41,38,34,100,90,87,29.64,29.48,29.36,10,10,2,7,3,,0.00,8,,338
2010-11-8,44,38,32,37,33,28,93,74,53,29.77,29.74,29.67,10,10,10,13,5,18,0.00,6,,150
2010-11-9,41,36,30,36,32,28,93,85,76,29.96,29.87,29.77,10,10,10,9,1,,0.00,8,,124
2010-11-10,39,38,37,37,37,36,93,92,87,30.06,30.01,29.92,10,10,8,10,5,,0.00,8,,351
2010-11-11,44,40,37,39,36,34,93,86,70,29.82,29.71,29.63,10,10,8,25,9,31,0.00,8,,344
2010-11-12,46,42,39,43,39,37,100,85,76,29.78,29.70,29.66,10,10,8,31,16,41,0.00,8,,124
2010-11-13,46,44,41,43,41,37,93,84,71,29.96,29.86,29.66,10,10,4,10,6,,0.00,8,,154
2010-11-14,46,42,37,37,36,34,100,82,70,30.08,29.93,29.77,10,10,2,14,3,20,0.00,5,,202
2010-11-15,39,34,30,34,32,28,93,87,65,30.11,29.99,29.94,10,10,2,10,3,,0.00,4,,321
2010-11-16,35,32,30,30,26,14,100,76,44,30.05,30.03,30.01,10,10,10,14,4,18,0.00,8,,333
2010-11-17,32,30,28,7,3,0,37,32,27,30.27,30.15,30.11,10,10,10,28,20,41,0.00,1,,349
2010-11-18,35,27,19,19,9,-4,86,50,21,30.35,30.31,30.27,10,10,10,10,4,16,0.00,0,,348
2010-11-19,41,26,12,18,10,7,93,61,26,30.49,30.39,30.29,10,10,3,16,3,22,0.00,0,,7
2010-11-20,35,26,17,21,17,10,93,75,52,30.47,30.32,30.20,10,10,10,5,1,,0.00,2,,340
2010-11-21,33,25,17,27,22,12,93,87,70,30.17,30.15,30.13,10,10,10,5,1,,0.00,5,,339
2010-11-22,33,27,21,25,11,5,93,48,37,30.44,30.38,30.26,10,10,10,16,5,23,0.00,4,,149
2010-11-23,32,29,26,27,24,21,93,84,74,30.25,30.10,30.00,10,10,3,5,1,,0.00,8,,348
2010-11-24,39,34,30,37,32,28,100,90,87,29.97,29.75,29.59,10,7,2,14,4,21,0.00,8,,359
2010-11-25,39,37,35,37,35,34,93,88,81,29.60,29.49,29.36,10,10,9,10,5,,0.00,8,,111
2010-11-26,39,32,26,36,29,25,100,93,87,29.70,29.49,29.31,10,8,1,4,0,,0.00,4,,75
2010-11-27,33,27,21,32,27,19,100,90,86,29.84,29.82,29.78,10,10,3,6,1,,0.00,7,,349
2010-11-28,41,37,33,34,33,30,100,85,76,29.86,29.79,29.71,10,10,3,21,7,29,0.00,8,,140
2010-11-29,42,40,37,36,32,30,93,72,61,29.62,29.29,29.07,10,10,10,25,12,31,0.00,8,,90
2010-11-30,33,30,28,30,27,23,93,85,80,29.60,29.38,29.10,10,6,1,17,11,22,0.00,8,,336